createdAt,value
2023-03-29T00:00:39.542Z,60.45
2023-03-29T00:03:00.644Z,60.41
2023-03-29T00:05:15.866Z,61.25
2023-03-29T00:07:29.125Z,61.39
2023-03-29T00:09:43.631Z,61.49
2023-03-29T00:11:56.853Z,61.55
2023-03-29T00:14:10.523Z,62.95
2023-03-29T00:16:25.536Z,62.57
2023-03-29T00:18:39.110Z,62.87
2023-03-29T00:21:00.127Z,63.10
2023-03-29T00:23:13.172Z,63.33
2023-03-29T00:25:26.016Z,64.89
2023-03-29T00:27:38.762Z,65.08
2023-03-29T00:29:51.929Z,65.85
2023-03-29T00:32:04.920Z,65.96
2023-03-29T00:34:18.593Z,65.79
2023-03-29T00:36:32.792Z,65.83
2023-03-29T00:38:46.602Z,66.02
2023-03-29T00:41:01.989Z,66.13
2023-03-29T00:43:17.868Z,66.35
2023-03-29T00:45:33.195Z,66.46
2023-03-29T00:47:48.927Z,66.58
2023-03-29T00:50:07.717Z,66.51
2023-03-29T00:52:24.050Z,66.52
2023-03-29T00:54:39.343Z,66.92
2023-03-29T00:56:54.905Z,66.91
2023-03-29T00:59:13.466Z,67.14
2023-03-29T01:01:35.091Z,67.26
2023-03-29T01:03:55.243Z,67.22
2023-03-29T01:06:14.309Z,67.22
2023-03-29T01:08:32.160Z,67.32
2023-03-29T01:10:51.077Z,67.59
2023-03-29T01:13:10.595Z,67.74
2023-03-29T01:15:29.711Z,67.89
2023-03-29T01:17:44.472Z,67.92
2023-03-29T01:20:08.921Z,67.87
2023-03-29T01:22:33.390Z,67.93
2023-03-29T01:24:59.213Z,68.36
2023-03-29T01:27:19.268Z,68.33
2023-03-29T01:29:36.750Z,68.23
2023-03-29T01:31:54.368Z,68.31
2023-03-29T01:34:10.924Z,68.69
2023-03-29T01:36:30.039Z,68.68
2023-03-29T01:38:49.655Z,69.10
2023-03-29T01:41:04.582Z,69.21
2023-03-29T01:43:30.521Z,69.37
2023-03-29T01:45:49.675Z,69.44
2023-03-29T01:48:15.818Z,69.85
2023-03-29T01:50:37.983Z,69.50
2023-03-29T01:52:57.531Z,69.77
2023-03-29T01:55:15.449Z,69.86
2023-03-29T01:57:29.706Z,69.96
2023-03-29T01:59:48.720Z,70.34
2023-03-29T02:02:06.107Z,70.17
2023-03-29T02:04:22.104Z,70.23
2023-03-29T02:06:37.321Z,70.19
2023-03-29T02:08:51.603Z,70.28
2023-03-29T02:11:05.537Z,70.69
2023-03-29T02:13:20.180Z,70.49
2023-03-29T02:15:36.845Z,70.60
2023-03-29T02:17:52.415Z,70.39
2023-03-29T02:20:16.285Z,70.22
2023-03-29T02:22:36.342Z,70.41
2023-03-29T02:24:52.106Z,70.39
2023-03-29T02:27:06.516Z,70.24
2023-03-29T02:29:20.141Z,69.78
2023-03-29T02:31:38.429Z,69.79
2023-03-29T02:33:54.573Z,70.05
2023-03-29T02:36:11.368Z,70.39
2023-03-29T02:38:28.818Z,70.13
2023-03-29T02:40:43.286Z,70.37
2023-03-29T02:42:59.430Z,70.15
2023-03-29T02:45:16.638Z,70.49
2023-03-29T02:47:33.581Z,70.69
2023-03-29T02:49:47.191Z,70.62
2023-03-29T02:52:04.785Z,71.18
2023-03-29T02:54:21.354Z,71.00
2023-03-29T02:56:44.374Z,71.10
2023-03-29T02:58:57.367Z,71.24
2023-03-29T03:01:12.400Z,71.41
2023-03-29T03:03:26.632Z,71.45
2023-03-29T03:05:40.989Z,71.73
2023-03-29T03:07:53.916Z,71.61
2023-03-29T03:10:07.918Z,71.71
2023-03-29T03:12:24.215Z,72.32
2023-03-29T03:14:37.821Z,71.96
2023-03-29T03:16:52.326Z,71.99
2023-03-29T03:19:06.540Z,71.98
2023-03-29T03:21:21.265Z,72.10
2023-03-29T03:23:34.813Z,72.41
2023-03-29T03:25:50.264Z,72.30
2023-03-29T03:28:03.638Z,72.20
2023-03-29T03:30:22.024Z,72.49
2023-03-29T03:32:55.905Z,72.57
2023-03-29T03:35:33.050Z,72.39
2023-03-29T03:37:48.162Z,72.41
2023-03-29T03:40:05.878Z,72.43
2023-03-29T03:42:19.997Z,72.26
2023-03-29T03:44:36.398Z,72.41
2023-03-29T03:47:23.404Z,72.33
2023-03-29T03:49:37.807Z,72.35
2023-03-29T03:51:52.745Z,72.25
2023-03-29T03:54:06.677Z,72.21
2023-03-29T03:56:21.591Z,72.29
2023-03-29T03:58:50.139Z,72.19
2023-03-29T04:01:03.198Z,72.27
2023-03-29T04:03:22.800Z,72.26
2023-03-29T04:05:35.496Z,72.07
2023-03-29T04:07:48.578Z,71.83
2023-03-29T04:10:27.306Z,71.83
2023-03-29T04:12:51.905Z,72.01
2023-03-29T04:15:06.194Z,71.96
2023-03-29T04:17:21.198Z,72.08
2023-03-29T04:19:54.047Z,72.20
2023-03-29T04:22:06.682Z,72.21
2023-03-29T04:24:20.507Z,72.05
2023-03-29T04:26:48.979Z,72.03
2023-03-29T04:29:08.594Z,72.20
2023-03-29T04:31:33.939Z,71.97
2023-03-29T04:34:00.249Z,72.10
2023-03-29T04:36:14.955Z,72.22
2023-03-29T04:38:28.249Z,72.29
2023-03-29T04:40:41.739Z,72.11
2023-03-29T04:43:04.222Z,72.26
2023-03-29T04:45:19.256Z,72.31
2023-03-29T04:47:55.508Z,72.23
2023-03-29T04:50:09.656Z,72.31
2023-03-29T04:52:27.530Z,72.14
2023-03-29T04:54:41.382Z,72.22
2023-03-29T04:57:00.106Z,72.34
2023-03-29T04:59:40.775Z,72.32
2023-03-29T05:02:03.972Z,72.23
2023-03-29T05:04:19.776Z,72.48
2023-03-29T05:06:44.949Z,72.40
2023-03-29T05:08:58.211Z,72.31
2023-03-29T05:11:17.774Z,72.15
2023-03-29T05:13:30.486Z,72.42
2023-03-29T05:15:44.614Z,72.47
2023-03-29T05:17:58.265Z,72.57
2023-03-29T05:20:14.623Z,72.42
2023-03-29T05:22:31.311Z,72.59
2023-03-29T05:24:44.414Z,72.47
2023-03-29T05:27:02.688Z,72.21
2023-03-29T05:29:19.011Z,72.47
2023-03-29T05:31:38.386Z,72.73
2023-03-29T05:33:53.062Z,72.92
2023-03-29T05:36:12.185Z,72.51
2023-03-29T05:38:30.886Z,72.74
2023-03-29T05:40:44.446Z,72.70
2023-03-29T05:43:17.059Z,72.77
2023-03-29T05:45:31.498Z,72.77
2023-03-29T05:47:45.802Z,72.95
2023-03-29T05:49:58.877Z,72.91
2023-03-29T05:52:12.790Z,73.04
2023-03-29T05:54:26.250Z,72.88
2023-03-29T05:56:40.410Z,73.21
2023-03-29T05:58:58.012Z,73.25
2023-03-29T06:01:19.173Z,72.98
2023-03-29T06:03:43.304Z,73.08
2023-03-29T06:06:03.450Z,73.13
2023-03-29T06:08:18.297Z,73.17
2023-03-29T06:10:43.925Z,73.33
2023-03-29T06:13:08.220Z,73.08
2023-03-29T06:15:24.314Z,73.22
2023-03-29T06:17:46.043Z,73.18
2023-03-29T06:19:59.383Z,73.26
2023-03-29T06:22:14.964Z,73.65
2023-03-29T06:24:30.757Z,73.40
2023-03-29T06:26:51.095Z,73.45
2023-03-29T06:29:05.462Z,73.50
2023-03-29T06:31:18.434Z,73.48
2023-03-29T06:33:33.375Z,73.65
2023-03-29T06:35:58.796Z,73.45
2023-03-29T06:38:14.761Z,73.83
2023-03-29T06:41:04.162Z,73.89
2023-03-29T06:43:33.979Z,73.44
2023-03-29T06:45:57.331Z,73.89
2023-03-29T06:48:21.285Z,73.75
2023-03-29T06:50:43.818Z,73.56
2023-03-29T06:53:00.772Z,74.11
2023-03-29T06:55:17.008Z,73.82
2023-03-29T06:57:31.896Z,73.79
2023-03-29T06:59:45.508Z,73.93
2023-03-29T07:02:09.940Z,74.19
2023-03-29T07:04:33.331Z,74.13
2023-03-29T07:07:04.662Z,74.01
2023-03-29T07:09:22.006Z,73.96
2023-03-29T07:12:01.074Z,74.14
2023-03-29T07:14:14.705Z,74.02
2023-03-29T07:16:28.470Z,74.07
2023-03-29T07:18:56.843Z,73.97
2023-03-29T07:21:29.888Z,74.02
2023-03-29T07:23:43.796Z,74.03
2023-03-29T07:25:56.809Z,73.83
2023-03-29T07:28:12.390Z,73.99
2023-03-29T07:30:31.481Z,74.03
2023-03-29T07:33:00.130Z,74.09
2023-03-29T07:35:20.608Z,73.81
2023-03-29T07:37:54.104Z,74.28
2023-03-29T07:40:13.438Z,73.93
2023-03-29T07:42:48.959Z,73.99
2023-03-29T07:45:07.206Z,74.15
2023-03-29T07:47:27.097Z,73.98
2023-03-29T07:49:41.300Z,73.86
2023-03-29T07:51:55.093Z,73.71
2023-03-29T07:54:09.366Z,73.85
2023-03-29T07:56:25.898Z,74.10
2023-03-29T07:58:58.467Z,74.15
2023-03-29T08:01:18.738Z,74.16
2023-03-29T08:03:52.044Z,73.90
2023-03-29T08:06:08.172Z,74.02
2023-03-29T08:08:21.806Z,74.03
2023-03-29T08:10:40.501Z,73.96
2023-03-29T08:12:59.245Z,74.15
2023-03-29T08:15:22.493Z,74.04
2023-03-29T08:17:35.952Z,74.04
2023-03-29T08:19:51.065Z,74.13
2023-03-29T08:22:09.673Z,74.16
2023-03-29T08:24:42.744Z,73.97
2023-03-29T08:26:56.802Z,74.25
2023-03-29T08:29:11.348Z,74.50
2023-03-29T08:31:24.654Z,74.53
2023-03-29T08:33:37.623Z,74.34
2023-03-29T08:36:13.258Z,74.54
2023-03-29T08:38:29.887Z,74.46
2023-03-29T08:40:43.787Z,74.47
2023-03-29T08:43:44.125Z,74.47
2023-03-29T08:46:35.292Z,74.63
2023-03-29T08:49:13.547Z,74.98
2023-03-29T08:51:33.085Z,75.13
2023-03-29T08:53:50.187Z,75.28
2023-03-29T08:56:13.851Z,75.28
2023-03-29T08:58:37.163Z,75.26
2023-03-29T09:00:54.849Z,75.12
2023-03-29T09:03:12.400Z,75.38
2023-03-29T09:05:31.143Z,75.31
2023-03-29T09:07:59.110Z,75.13
2023-03-29T09:10:19.868Z,75.23
2023-03-29T09:12:46.858Z,75.45
2023-03-29T09:15:20.560Z,75.66
2023-03-29T09:17:51.730Z,75.39
2023-03-29T09:20:17.014Z,75.37
2023-03-29T09:22:36.158Z,75.24
2023-03-29T09:25:00.712Z,75.41
2023-03-29T09:27:18.188Z,75.34
2023-03-29T09:29:53.471Z,75.39
2023-03-29T09:32:18.012Z,75.40
2023-03-29T09:34:37.982Z,75.37
2023-03-29T09:36:57.777Z,75.34
2023-03-29T09:39:13.022Z,75.37
2023-03-29T09:41:33.635Z,75.52
2023-03-29T09:43:49.543Z,75.46
2023-03-29T09:46:10.410Z,75.39
2023-03-29T09:48:25.102Z,75.47
2023-03-29T09:50:43.928Z,75.73
2023-03-29T09:52:58.354Z,75.82
2023-03-29T09:55:19.456Z,75.79
2023-03-29T09:57:48.476Z,75.72
2023-03-29T10:00:06.811Z,75.86
2023-03-29T10:02:27.478Z,75.76
2023-03-29T10:04:43.630Z,75.63
2023-03-29T10:06:58.439Z,75.82
2023-03-29T10:09:23.928Z,75.84
2023-03-29T10:11:42.703Z,75.64
2023-03-29T10:14:00.447Z,75.85
2023-03-29T10:16:22.167Z,75.80
2023-03-29T10:18:36.845Z,76.13
2023-03-29T10:20:50.297Z,76.07
2023-03-29T10:23:04.703Z,76.20
2023-03-29T10:25:21.989Z,76.06
2023-03-29T10:27:37.730Z,76.14
2023-03-29T10:29:51.332Z,76.05
2023-03-29T10:32:05.025Z,76.00
2023-03-29T10:34:22.077Z,76.07
2023-03-29T10:36:37.179Z,76.26
2023-03-29T10:38:50.098Z,76.18
2023-03-29T10:41:12.563Z,76.18
2023-03-29T10:43:30.712Z,76.35
2023-03-29T10:45:46.301Z,76.12
2023-03-29T10:48:01.368Z,76.30
2023-03-29T10:50:21.016Z,76.50
2023-03-29T10:52:36.239Z,76.65
2023-03-29T10:54:51.544Z,76.41
2023-03-29T10:57:09.260Z,76.70
2023-03-29T10:59:42.584Z,76.51
2023-03-29T11:02:34.114Z,76.69
2023-03-29T11:04:53.611Z,76.80
2023-03-29T11:07:33.701Z,76.78
2023-03-29T11:09:56.638Z,76.65
2023-03-29T11:12:25.383Z,76.68
2023-03-29T11:14:47.834Z,76.72
2023-03-29T11:17:13.733Z,77.03
2023-03-29T11:19:50.942Z,76.99
2023-03-29T11:22:11.924Z,77.28
2023-03-29T11:24:51.138Z,77.47
2023-03-29T11:27:16.156Z,77.52
2023-03-29T11:29:34.946Z,77.68
2023-03-29T11:31:59.158Z,77.57
2023-03-29T11:34:24.208Z,77.77
2023-03-29T11:36:43.586Z,77.91
2023-03-29T11:39:05.910Z,78.01
2023-03-29T11:41:22.016Z,78.02
2023-03-29T11:43:40.684Z,78.07
2023-03-29T11:45:58.269Z,78.18
2023-03-29T11:48:17.647Z,78.13
2023-03-29T11:50:35.329Z,78.43
2023-03-29T11:52:53.697Z,78.32
2023-03-29T11:55:12.940Z,78.47
2023-03-29T11:57:33.179Z,78.53
2023-03-29T11:59:51.854Z,78.52
2023-03-29T12:02:16.138Z,78.82
2023-03-29T12:04:34.534Z,78.82
2023-03-29T12:06:55.868Z,78.97
2023-03-29T12:09:16.625Z,78.99
2023-03-29T12:11:37.341Z,79.04
2023-03-29T12:13:56.946Z,78.93
2023-03-29T12:16:19.385Z,79.13
2023-03-29T12:18:31.856Z,79.11
2023-03-29T12:20:50.040Z,79.27
2023-03-29T12:23:03.893Z,79.37
2023-03-29T12:25:24.614Z,79.40
2023-03-29T12:27:44.839Z,79.42
2023-03-29T12:30:34.440Z,79.65
2023-03-29T12:33:10.150Z,79.33
2023-03-29T12:35:55.513Z,79.69
2023-03-29T12:38:30.966Z,79.89
2023-03-29T12:41:05.098Z,79.46
2023-03-29T12:43:54.179Z,79.46
2023-03-29T12:46:12.440Z,79.33
2023-03-29T12:48:29.148Z,79.24
2023-03-29T12:50:47.373Z,79.36
2023-03-29T12:53:08.570Z,79.01
2023-03-29T12:55:37.772Z,79.28
2023-03-29T12:58:05.036Z,79.12
2023-03-29T13:00:32.914Z,79.13
2023-03-29T13:02:46.821Z,78.86
2023-03-29T13:05:02.223Z,79.13
2023-03-29T13:07:32.026Z,78.95
2023-03-29T13:09:54.634Z,79.03
2023-03-29T13:12:24.836Z,78.86
2023-03-29T13:14:43.934Z,79.06
2023-03-29T13:17:17.544Z,79.05
2023-03-29T13:19:39.290Z,79.32
2023-03-29T13:22:05.997Z,79.19
2023-03-29T13:24:36.826Z,79.30
2023-03-29T13:27:01.060Z,79.34
2023-03-29T13:29:44.333Z,79.44
2023-03-29T13:32:05.098Z,79.30
2023-03-29T13:34:33.944Z,79.49
2023-03-29T13:36:57.799Z,79.56
2023-03-29T13:39:18.511Z,79.51
2023-03-29T13:41:47.452Z,79.68
2023-03-29T13:44:02.749Z,79.80
2023-03-29T13:46:39.385Z,79.81
2023-03-29T13:49:07.222Z,79.82
2023-03-29T13:51:35.813Z,79.98
2023-03-29T13:53:56.273Z,79.87
2023-03-29T13:56:13.508Z,79.77
2023-03-29T13:58:37.909Z,79.93
2023-03-29T14:00:58.327Z,79.70
2023-03-29T14:03:16.871Z,79.77
2023-03-29T14:05:35.624Z,79.78
2023-03-29T14:07:53.788Z,79.70
2023-03-29T14:10:09.128Z,79.96
2023-03-29T14:12:23.753Z,79.69
2023-03-29T14:14:48.299Z,79.90
2023-03-29T14:17:10.989Z,79.76
2023-03-29T14:19:28.587Z,79.94
2023-03-29T14:21:43.392Z,79.82
2023-03-29T14:24:03.929Z,80.04
2023-03-29T14:26:22.327Z,80.07
2023-03-29T14:28:36.885Z,79.93
2023-03-29T14:30:53.687Z,79.68
2023-03-29T14:33:08.164Z,79.95
2023-03-29T14:35:24.288Z,80.04
2023-03-29T14:37:38.430Z,79.98
2023-03-29T14:39:52.722Z,79.92
2023-03-29T14:42:06.939Z,79.93
2023-03-29T14:44:22.200Z,80.02
2023-03-29T14:46:38.449Z,79.90
2023-03-29T14:48:52.424Z,80.13
2023-03-29T14:51:05.368Z,79.88
2023-03-29T14:53:23.562Z,80.09
2023-03-29T14:55:38.506Z,80.34
2023-03-29T14:57:53.860Z,80.29
2023-03-29T15:00:20.215Z,80.27
2023-03-29T15:02:34.813Z,80.24
2023-03-29T15:04:48.455Z,80.20
2023-03-29T15:07:07.276Z,80.30
2023-03-29T15:09:25.531Z,80.43
2023-03-29T15:11:40.872Z,80.54
2023-03-29T15:14:02.660Z,80.44
2023-03-29T15:16:19.803Z,80.45
2023-03-29T15:18:36.006Z,80.23
2023-03-29T15:20:49.402Z,80.52
2023-03-29T15:23:05.708Z,80.46
2023-03-29T15:25:22.975Z,80.47
2023-03-29T15:27:46.016Z,80.59
2023-03-29T15:30:05.763Z,80.84
2023-03-29T15:32:26.924Z,80.83
2023-03-29T15:34:40.972Z,80.69
2023-03-29T15:36:55.090Z,80.98
2023-03-29T15:39:08.391Z,80.72
2023-03-29T15:41:22.784Z,80.83
2023-03-29T15:43:35.968Z,80.82
2023-03-29T15:45:48.890Z,80.55
2023-03-29T15:48:05.887Z,80.74
2023-03-29T15:50:19.626Z,80.60
2023-03-29T15:52:32.754Z,80.74
2023-03-29T15:54:46.990Z,80.64
2023-03-29T15:57:04.623Z,81.10
2023-03-29T15:59:20.393Z,81.21
2023-03-29T16:01:40.085Z,81.17
2023-03-29T16:03:53.704Z,81.11
2023-03-29T16:06:06.885Z,81.29
2023-03-29T16:08:20.493Z,81.34
2023-03-29T16:10:34.423Z,80.95
2023-03-29T16:12:48.368Z,81.29
2023-03-29T16:15:01.654Z,80.95
2023-03-29T16:17:16.962Z,81.27
2023-03-29T16:19:30.292Z,81.20
2023-03-29T16:21:44.148Z,81.35
2023-03-29T16:23:56.880Z,81.49
2023-03-29T16:26:10.535Z,80.79
2023-03-29T16:28:23.187Z,80.82
2023-03-29T16:30:36.081Z,80.98
2023-03-29T16:32:48.860Z,80.85
2023-03-29T16:35:02.350Z,81.00
2023-03-29T16:37:15.593Z,80.49
2023-03-29T16:39:28.774Z,80.55
2023-03-29T16:41:43.260Z,80.46
2023-03-29T16:43:57.461Z,79.91
2023-03-29T16:46:12.171Z,80.22
2023-03-29T16:48:26.061Z,79.73
2023-03-29T16:50:39.055Z,80.00
2023-03-29T16:52:53.533Z,80.11
2023-03-29T16:55:07.051Z,80.43
2023-03-29T16:57:20.185Z,80.30
2023-03-29T16:59:33.244Z,80.38
2023-03-29T17:01:46.540Z,80.44
2023-03-29T17:04:01.249Z,80.23
2023-03-29T17:06:16.052Z,80.56
2023-03-29T17:08:29.468Z,80.34
2023-03-29T17:10:45.831Z,80.50
2023-03-29T17:13:00.453Z,80.39
2023-03-29T17:15:15.081Z,80.60
2023-03-29T17:17:28.005Z,80.57
2023-03-29T17:19:41.105Z,80.31
2023-03-29T17:21:53.959Z,80.41
2023-03-29T17:24:06.959Z,80.67
2023-03-29T17:26:19.315Z,80.36
2023-03-29T17:28:36.011Z,80.32
2023-03-29T17:30:51.220Z,80.24
2023-03-29T17:33:05.543Z,80.29
2023-03-29T17:35:19.716Z,80.21
2023-03-29T17:37:32.898Z,80.02
2023-03-29T17:39:47.201Z,79.94
2023-03-29T17:42:00.814Z,79.98
2023-03-29T17:44:15.062Z,79.58
2023-03-29T17:46:28.460Z,79.56
2023-03-29T17:48:42.366Z,79.75
2023-03-29T17:50:57.851Z,79.89
2023-03-29T17:53:11.993Z,80.05
2023-03-29T17:55:25.183Z,80.07
2023-03-29T17:57:38.327Z,79.96
2023-03-29T17:59:50.962Z,80.05
2023-03-29T18:02:06.532Z,79.95
2023-03-29T18:04:19.331Z,79.89
2023-03-29T18:06:33.500Z,79.87
2023-03-29T18:08:47.536Z,79.80
2023-03-29T18:11:08.455Z,80.23
2023-03-29T18:13:26.465Z,80.96
2023-03-29T18:15:40.592Z,81.13
2023-03-29T18:17:55.456Z,81.04
2023-03-29T18:20:12.707Z,81.23
2023-03-29T18:22:25.900Z,80.60
2023-03-29T18:24:39.288Z,80.05
2023-03-29T18:26:52.251Z,79.16
2023-03-29T18:29:06.070Z,78.64
2023-03-29T18:31:20.807Z,78.28
2023-03-29T18:33:36.630Z,78.00
2023-03-29T18:35:51.613Z,76.58
2023-03-29T18:38:04.522Z,76.08
2023-03-29T18:40:21.341Z,75.27
2023-03-29T18:42:34.244Z,74.51
2023-03-29T18:44:47.327Z,74.03
2023-03-29T18:47:00.262Z,73.78
2023-03-29T18:49:14.205Z,73.43
2023-03-29T18:51:27.277Z,72.82
2023-03-29T18:53:43.069Z,72.01
2023-03-29T18:55:55.694Z,72.00
2023-03-29T18:58:08.379Z,71.60
2023-03-29T19:00:21.747Z,70.71
2023-03-29T19:02:34.831Z,70.78
2023-03-29T19:04:47.787Z,70.20
2023-03-29T19:07:00.886Z,69.67
2023-03-29T19:09:13.809Z,69.37
2023-03-29T19:11:28.772Z,68.49
2023-03-29T19:13:42.038Z,67.19
2023-03-29T19:15:54.819Z,66.36
2023-03-29T19:18:07.961Z,65.24
2023-03-29T19:20:22.239Z,64.55
2023-03-29T19:22:36.097Z,64.40
2023-03-29T19:24:48.811Z,64.15
2023-03-29T19:27:01.499Z,63.35
2023-03-29T19:29:14.352Z,62.80
2023-03-29T19:31:28.645Z,62.72
2023-03-29T19:33:41.838Z,62.35
2023-03-29T19:35:55.590Z,62.54
2023-03-29T19:38:10.235Z,62.37
2023-03-29T19:40:24.406Z,61.60
2023-03-29T19:42:40.580Z,61.00
2023-03-29T19:44:53.486Z,60.57
2023-03-29T19:47:08.190Z,60.01
2023-03-29T19:49:22.734Z,59.60
2023-03-29T19:51:37.397Z,58.47
2023-03-29T19:53:51.317Z,58.60
2023-03-29T19:56:07.502Z,58.34
2023-03-29T19:58:20.800Z,58.14
2023-03-29T20:00:34.900Z,58.05
2023-03-29T20:02:48.061Z,57.59
2023-03-29T20:05:00.837Z,57.37
2023-03-29T20:07:14.175Z,57.27
2023-03-29T20:09:27.294Z,57.31
2023-03-29T20:11:41.068Z,56.67
2023-03-29T20:13:54.934Z,56.75
2023-03-29T20:16:09.574Z,57.50
2023-03-29T20:18:22.761Z,57.67
2023-03-29T20:20:36.877Z,57.43
2023-03-29T20:22:49.683Z,57.37
2023-03-29T20:25:02.568Z,57.20
2023-03-29T20:27:15.079Z,56.68
2023-03-29T20:29:28.355Z,56.46
2023-03-29T20:31:41.426Z,56.36
2023-03-29T20:33:56.993Z,55.94
2023-03-29T20:36:11.487Z,56.11
2023-03-29T20:38:24.261Z,55.71
2023-03-29T20:40:38.401Z,55.51
2023-03-29T20:42:51.155Z,54.76
2023-03-29T20:45:04.361Z,54.31
2023-03-29T20:47:17.908Z,53.44
2023-03-29T20:49:30.525Z,53.34
2023-03-29T20:51:44.685Z,53.27
2023-03-29T20:54:03.413Z,53.51
2023-03-29T20:56:17.452Z,53.73
2023-03-29T20:58:30.318Z,53.22
2023-03-29T21:00:43.125Z,52.18
2023-03-29T21:02:56.355Z,50.89
2023-03-29T21:05:09.991Z,50.20
2023-03-29T21:07:24.145Z,50.96
2023-03-29T21:09:38.911Z,50.51
2023-03-29T21:11:52.821Z,50.09
2023-03-29T21:14:10.385Z,49.62
2023-03-29T21:16:23.499Z,49.50
2023-03-29T21:18:36.158Z,49.03
2023-03-29T21:20:50.728Z,49.27
2023-03-29T21:23:03.961Z,49.08
2023-03-29T21:25:18.600Z,49.16
2023-03-29T21:27:31.804Z,49.63
2023-03-29T21:29:45.159Z,49.53
2023-03-29T21:31:58.069Z,49.16
2023-03-29T21:34:11.048Z,48.45
2023-03-29T21:36:23.582Z,47.74
2023-03-29T21:38:36.801Z,47.69
2023-03-29T21:40:49.741Z,47.66
2023-03-29T21:43:02.668Z,47.63
2023-03-29T21:45:17.057Z,47.18
2023-03-29T21:47:31.476Z,46.91
2023-03-29T21:49:45.070Z,47.10
2023-03-29T21:51:57.758Z,47.00
2023-03-29T21:54:11.260Z,46.93
2023-03-29T21:56:24.214Z,47.34
2023-03-29T21:58:37.055Z,47.45
2023-03-29T22:00:51.774Z,47.63
2023-03-29T22:03:05.008Z,47.51
2023-03-29T22:05:19.293Z,47.60
2023-03-29T22:07:32.060Z,46.92
2023-03-29T22:09:45.506Z,46.55
2023-03-29T22:12:00.689Z,46.04
2023-03-29T22:14:15.348Z,46.12
2023-03-29T22:16:32.310Z,46.29
2023-03-29T22:18:47.989Z,46.13
2023-03-29T22:21:01.448Z,46.41
2023-03-29T22:23:14.433Z,46.12
2023-03-29T22:25:28.479Z,45.99
2023-03-29T22:27:41.436Z,46.41
2023-03-29T22:29:55.373Z,46.35
2023-03-29T22:32:09.524Z,46.26
2023-03-29T22:34:22.309Z,46.03
2023-03-29T22:36:35.965Z,45.84
2023-03-29T22:38:50.099Z,45.85
2023-03-29T22:41:04.561Z,45.85
2023-03-29T22:43:19.040Z,45.84
2023-03-29T22:45:33.736Z,46.00
2023-03-29T22:47:47.941Z,45.92
2023-03-29T22:50:01.320Z,45.56
2023-03-29T22:52:15.428Z,44.85
2023-03-29T22:54:28.000Z,44.69
2023-03-29T22:56:42.586Z,44.71
2023-03-29T22:58:57.292Z,44.45
2023-03-29T23:01:11.144Z,44.04
2023-03-29T23:03:24.444Z,44.01
2023-03-29T23:05:38.037Z,44.13
2023-03-29T23:07:50.703Z,44.34
2023-03-29T23:10:04.703Z,44.68
2023-03-29T23:12:19.389Z,44.27
2023-03-29T23:14:34.908Z,43.74
2023-03-29T23:16:48.887Z,43.26
2023-03-29T23:19:02.138Z,42.85
2023-03-29T23:21:15.867Z,42.50
2023-03-29T23:23:29.654Z,42.33
2023-03-29T23:25:44.795Z,42.04
2023-03-29T23:27:58.507Z,41.93
2023-03-29T23:30:14.418Z,41.82
2023-03-29T23:32:29.002Z,41.66
2023-03-29T23:34:41.778Z,41.55
2023-03-29T23:36:55.862Z,41.64
2023-03-29T23:39:09.092Z,41.42
2023-03-29T23:41:24.093Z,41.25
2023-03-29T23:43:41.715Z,40.64
2023-03-29T23:46:02.180Z,40.07
2023-03-29T23:48:17.580Z,40.34
2023-03-29T23:50:31.470Z,40.68
2023-03-29T23:52:45.197Z,40.78
2023-03-29T23:54:59.356Z,40.85
2023-03-29T23:57:13.504Z,40.95
2023-03-29T23:59:30.023Z,40.73
